Time;durP1;ratioP1;P1;durP2;ratioP2;P2;SDS_P1;SDS_P2;PMS_P1;PMS_P2;Temp;Humidity;BMP_temperature;BMP_pressure;BME280_temperature;BME280_humidity;BME280_pressure;Samples;Min_cycle;Max_cycle;Signal;HPM_P1;HPM_P2
2023/08/28 00:02:13;;;;;;;1.35;0.70;;;18.10;54.20;;;;;;4960725;28;20062;-85
2023/08/28 00:04:40;;;;;;;2.10;0.80;;;18.00;54.20;;;;;;4958863;28;20059;-84
2023/08/28 00:07:09;;;;;;;0.90;0.55;;;18.00;54.20;;;;;;4961613;28;20051;-84
2023/08/28 00:09:36;;;;;;;1.35;0.77;;;18.00;54.30;;;;;;4958696;28;20553;-84
2023/08/28 00:12:04;;;;;;;0.60;0.55;;;17.90;54.30;;;;;;4959948;28;20055;-84
2023/08/28 00:14:32;;;;;;;1.27;0.65;;;17.90;54.40;;;;;;4961124;28;20046;-85
2023/08/28 00:16:59;;;;;;;1.45;0.90;;;17.90;54.40;;;;;;4962693;28;20421;-85
2023/08/28 00:19:26;;;;;;;1.58;0.77;;;17.90;54.40;;;;;;4956933;28;20059;-85
2023/08/28 00:21:54;;;;;;;1.15;0.75;;;17.90;54.50;;;;;;4960190;28;20541;-84
2023/08/28 00:24:22;;;;;;;5.90;0.82;;;17.80;54.50;;;;;;4958780;28;20050;-84
2023/08/28 00:26:49;;;;;;;0.88;0.60;;;17.80;54.50;;;;;;4959022;28;20065;-84
2023/08/28 00:29:17;;;;;;;1.08;0.68;;;17.80;54.60;;;;;;4959630;28;20054;-84
2023/08/28 00:31:44;;;;;;;1.38;0.60;;;17.80;54.60;;;;;;4952782;28;20055;-84
2023/08/28 00:34:11;;;;;;;1.00;0.80;;;17.80;54.60;;;;;;4960963;28;20050;-84
2023/08/28 00:36:38;;;;;;;2.17;0.70;;;17.70;54.60;;;;;;4959698;28;20059;-84
2023/08/28 00:39:06;;;;;;;1.70;0.60;;;17.70;54.60;;;;;;4959494;28;20046;-84
2023/08/28 00:41:36;;;;;;;0.95;0.63;;;17.70;54.60;;;;;;4961074;28;20047;-84
2023/08/28 00:44:04;;;;;;;1.63;0.60;;;17.70;54.60;;;;;;4961487;28;20119;-85
2023/08/28 00:46:32;;;;;;;2.13;0.88;;;17.70;54.70;;;;;;4960633;28;20061;-84
2023/08/28 00:48:59;;;;;;;1.35;0.70;;;17.60;54.70;;;;;;4958107;28;20417;-85
2023/08/28 00:51:26;;;;;;;1.42;0.95;;;17.60;54.80;;;;;;4958696;28;20073;-84
2023/08/28 00:53:54;;;;;;;0.88;0.68;;;17.60;54.90;;;;;;4959645;28;20066;-83
2023/08/28 00:56:21;;;;;;;1.33;0.85;;;17.50;54.90;;;;;;4956929;28;20554;-84
2023/08/28 00:58:50;;;;;;;1.85;0.98;;;17.50;55.00;;;;;;4959206;28;20078;-83
2023/08/28 01:01:17;;;;;;;1.40;0.90;;;17.50;55.10;;;;;;4960026;28;20154;-83
2023/08/28 01:03:44;;;;;;;1.90;0.73;;;17.50;55.10;;;;;;4989339;23;20671;-64
2023/08/28 01:06:20;;;;;;;0.77;0.70;;;17.50;55.10;;;;;;4974867;28;20516;-64
2023/08/28 01:08:55;;;;;;;1.55;0.80;;;17.40;55.20;;;;;;4973995;28;20078;-63
2023/08/28 01:11:30;;;;;;;1.35;0.50;;;17.40;55.20;;;;;;4977423;28;20065;-64
2023/08/28 01:14:07;;;;;;;1.90;0.90;;;17.40;55.20;;;;;;4979697;28;20065;-64
2023/08/28 01:16:37;;;;;;;1.17;0.80;;;17.40;55.30;;;;;;4964515;28;20593;-63
2023/08/28 01:19:06;;;;;;;1.30;0.75;;;17.40;55.30;;;;;;4976632;28;20050;-62
2023/08/28 01:21:33;;;;;;;1.20;0.70;;;17.40;55.30;;;;;;4976483;28;20054;-64
2023/08/28 01:24:03;;;;;;;1.25;0.93;;;17.30;55.30;;;;;;4975519;28;20486;-64
2023/08/28 01:26:32;;;;;;;0.80;0.60;;;17.30;55.30;;;;;;4977110;28;20066;-64
2023/08/28 01:28:59;;;;;;;2.03;0.75;;;17.30;55.40;;;;;;4977540;28;20050;-64
2023/08/28 01:31:27;;;;;;;1.48;0.75;;;17.30;55.40;;;;;;4973989;28;20437;-64
2023/08/28 01:33:55;;;;;;;1.70;0.90;;;17.30;55.40;;;;;;4978324;28;20061;-63
2023/08/28 01:36:26;;;;;;;2.95;0.82;;;17.30;55.40;;;;;;4977446;28;20129;-63
2023/08/28 01:38:59;;;;;;;2.85;0.88;;;17.30;55.40;;;;;;4972282;28;20058;-64
2023/08/28 01:41:27;;;;;;;1.45;0.70;;;17.20;55.40;;;;;;4973214;28;20055;-64
2023/08/28 01:44:00;;;;;;;1.35;1.00;;;17.20;55.40;;;;;;4978775;28;20054;-63
2023/08/28 01:46:31;;;;;;;1.45;1.00;;;17.20;55.50;;;;;;4976163;28;20054;-63
2023/08/28 01:48:58;;;;;;;1.77;0.80;;;17.20;55.50;;;;;;4975108;28;20054;-64
2023/08/28 01:51:26;;;;;;;1.70;0.80;;;17.20;55.40;;;;;;4976106;28;20047;-64
2023/08/28 01:53:54;;;;;;;0.70;0.70;;;17.20;55.50;;;;;;4975583;28;20066;-63
2023/08/28 01:56:21;;;;;;;1.20;0.90;;;17.10;55.40;;;;;;4978486;28;20068;-63
2023/08/28 01:58:52;;;;;;;2.25;1.17;;;17.10;55.50;;;;;;4970727;28;20049;-64
2023/08/28 02:01:21;;;;;;;1.85;0.80;;;17.10;55.50;;;;;;4976347;28;20054;-63
2023/08/28 02:03:48;;;;;;;1.10;0.90;;;17.10;55.60;;;;;;4975527;28;20058;-63
2023/08/28 02:06:16;;;;;;;1.95;0.90;;;17.10;55.50;;;;;;4969739;28;20053;-63
2023/08/28 02:08:43;;;;;;;1.60;0.90;;;17.00;55.50;;;;;;4974138;28;20409;-61
2023/08/28 02:11:11;;;;;;;1.75;0.80;;;17.00;55.50;;;;;;4975858;28;20050;-63
2023/08/28 02:13:39;;;;;;;2.15;1.10;;;17.00;55.50;;;;;;4973751;28;20055;-63
2023/08/28 02:16:07;;;;;;;4.47;1.20;;;17.00;55.50;;;;;;4972535;28;20054;-63
2023/08/28 02:18:35;;;;;;;1.45;1.17;;;16.90;55.50;;;;;;4970447;28;20724;-62
2023/08/28 02:21:03;;;;;;;1.52;0.85;;;16.90;55.60;;;;;;4972473;28;20063;-61
2023/08/28 02:23:30;;;;;;;1.77;0.95;;;16.90;55.70;;;;;;4971834;28;20050;-63
2023/08/28 02:25:58;;;;;;;1.88;1.05;;;16.90;55.70;;;;;;4976648;28;20050;-63
2023/08/28 02:28:25;;;;;;;1.30;0.88;;;16.80;55.70;;;;;;4976433;28;20046;-63
2023/08/28 02:30:53;;;;;;;2.10;0.93;;;16.90;55.80;;;;;;4971552;28;20061;-63
2023/08/28 02:33:20;;;;;;;1.35;1.02;;;16.80;55.80;;;;;;4972597;28;20069;-63
2023/08/28 02:35:48;;;;;;;1.98;0.85;;;16.80;55.80;;;;;;4975536;28;20054;-63
2023/08/28 02:38:16;;;;;;;2.90;0.88;;;16.80;55.90;;;;;;4971811;28;20490;-63
2023/08/28 02:40:43;;;;;;;1.95;1.05;;;16.80;55.90;;;;;;4974968;28;20059;-63
2023/08/28 02:43:10;;;;;;;1.63;1.00;;;16.80;55.90;;;;;;4976585;28;20406;-63
2023/08/28 02:45:40;;;;;;;1.15;0.93;;;16.80;55.90;;;;;;4977605;28;20050;-63
2023/08/28 02:48:09;;;;;;;0.85;0.85;;;16.70;55.90;;;;;;4968147;28;20059;-63
2023/08/28 02:50:37;;;;;;;1.67;0.90;;;16.70;55.90;;;;;;4974122;28;20398;-63
2023/08/28 02:53:06;;;;;;;1.42;1.00;;;16.70;56.40;;;;;;4976876;28;20413;-63
2023/08/28 02:55:40;;;;;;;1.35;0.90;;;16.70;56.00;;;;;;4980730;28;20073;-60
2023/08/28 02:58:08;;;;;;;0.82;0.70;;;16.70;56.00;;;;;;4976828;28;20054;-62
2023/08/28 03:00:37;;;;;;;1.95;1.00;;;16.70;56.00;;;;;;4979376;28;20046;-63
2023/08/28 03:03:05;;;;;;;2.28;0.98;;;16.70;56.00;;;;;;4979239;28;20054;-63
2023/08/28 03:05:32;;;;;;;1.58;1.00;;;16.60;56.00;;;;;;4980306;28;20517;-62
2023/08/28 03:07:59;;;;;;;1.10;0.98;;;16.60;56.00;;;;;;4975630;28;20054;-63
2023/08/28 03:10:28;;;;;;;1.25;1.10;;;16.60;56.00;;;;;;4972213;28;20054;-63
2023/08/28 03:12:55;;;;;;;1.23;1.00;;;16.60;56.00;;;;;;4978729;28;20066;-62
2023/08/28 03:15:23;;;;;;;1.10;1.00;;;16.60;55.90;;;;;;4978854;28;20058;-63
2023/08/28 03:17:50;;;;;;;1.33;1.10;;;16.60;55.90;;;;;;4976969;28;20058;-62
2023/08/28 03:20:17;;;;;;;3.45;1.30;;;16.60;55.90;;;;;;4974441;28;20050;-63
2023/08/28 03:22:44;;;;;;;1.50;1.20;;;16.60;56.00;;;;;;4977243;28;20055;-63
2023/08/28 03:25:13;;;;;;;1.80;1.40;;;16.50;56.00;;;;;;4980284;28;20054;-64
2023/08/28 03:27:42;;;;;;;2.35;1.70;;;16.50;56.00;;;;;;4975203;28;20057;-63
2023/08/28 03:30:10;;;;;;;2.20;1.60;;;16.50;56.00;;;;;;4972841;28;20054;-62
2023/08/28 03:32:37;;;;;;;2.88;1.63;;;16.50;56.00;;;;;;4976300;28;20061;-63
2023/08/28 03:35:05;;;;;;;2.92;1.38;;;16.50;56.10;;;;;;4976021;28;20436;-63
2023/08/28 03:37:32;;;;;;;2.15;1.52;;;16.50;56.00;;;;;;4980052;28;20410;-61
2023/08/28 03:39:59;;;;;;;2.28;1.73;;;16.40;56.00;;;;;;4969240;28;20057;-60
2023/08/28 03:42:27;;;;;;;2.58;1.77;;;16.50;56.10;;;;;;4973945;28;20047;-63
2023/08/28 03:44:56;;;;;;;1.90;1.60;;;16.50;56.10;;;;;;4979185;28;20062;-63
2023/08/28 03:47:23;;;;;;;1.73;1.60;;;16.50;56.20;;;;;;4982947;28;20066;-63
2023/08/28 03:50:34;;;;;;;4.40;1.40;;;16.40;56.10;;;;;;4978383;28;20076;-63
2023/08/28 03:53:02;;;;;;;2.70;1.40;;;16.40;56.20;;;;;;4979304;28;20058;-64
2023/08/28 03:55:30;;;;;;;2.83;1.67;;;16.40;56.20;;;;;;4979044;28;20513;-62
2023/08/28 03:57:57;;;;;;;1.63;1.50;;;16.40;56.20;;;;;;4975810;28;20054;-63
2023/08/28 04:00:26;;;;;;;2.40;1.70;;;16.40;56.40;;;;;;4976276;28;20051;-63
2023/08/28 04:02:53;;;;;;;9.10;3.83;;;16.40;56.40;;;;;;4978385;28;20437;-62
2023/08/28 04:05:21;;;;;;;53.17;23.02;;;16.40;56.40;;;;;;4977760;28;20054;-61
2023/08/28 04:07:50;;;;;;;32.30;13.77;;;16.40;56.40;;;;;;4973608;28;20391;-63
2023/08/28 04:10:17;;;;;;;12.48;4.82;;;16.40;56.50;;;;;;4970927;28;21653;-63
2023/08/28 04:12:44;;;;;;;3.10;2.20;;;16.40;56.50;;;;;;4976237;28;20046;-63
2023/08/28 04:15:12;;;;;;;3.30;1.40;;;16.40;56.50;;;;;;4975049;28;20058;-63
2023/08/28 04:17:41;;;;;;;2.60;1.05;;;16.40;56.50;;;;;;4968323;28;20610;-63
2023/08/28 04:20:12;;;;;;;3.17;1.63;;;16.40;56.40;;;;;;4967927;28;20054;-63
2023/08/28 04:22:40;;;;;;;2.45;1.40;;;16.40;56.40;;;;;;4974051;28;20073;-62
2023/08/28 04:25:09;;;;;;;1.40;1.30;;;16.40;56.40;;;;;;4967424;28;20050;-63
2023/08/28 04:27:36;;;;;;;1.95;1.13;;;16.40;56.40;;;;;;4974296;28;20054;-63
2023/08/28 04:30:04;;;;;;;1.13;1.02;;;16.40;56.30;;;;;;4973987;28;20059;-63
2023/08/28 04:32:31;;;;;;;3.50;1.23;;;16.30;56.30;;;;;;4973731;28;20494;-63
2023/08/28 04:35:00;;;;;;;3.45;1.40;;;16.30;56.30;;;;;;4975534;28;20497;-63
2023/08/28 04:37:28;;;;;;;1.20;1.10;;;16.30;56.30;;;;;;4977017;28;20050;-57
2023/08/28 04:39:55;;;;;;;1.30;1.10;;;16.30;56.30;;;;;;4974255;28;20062;-59
2023/08/28 04:42:23;;;;;;;2.75;1.20;;;16.30;56.30;;;;;;4972975;28;20065;-58
2023/08/28 04:44:50;;;;;;;1.48;1.33;;;16.20;56.30;;;;;;4977390;28;20065;-59
2023/08/28 04:47:17;;;;;;;1.35;1.20;;;16.20;56.30;;;;;;4975267;28;20054;-61
2023/08/28 04:49:44;;;;;;;3.10;1.20;;;16.20;56.30;;;;;;4975384;28;20418;-60
2023/08/28 04:52:13;;;;;;;2.17;1.10;;;16.20;56.40;;;;;;4975935;28;20410;-59
2023/08/28 04:54:40;;;;;;;2.25;1.10;;;16.20;56.40;;;;;;4977286;28;20054;-56
2023/08/28 04:57:07;;;;;;;1.33;0.93;;;16.20;56.40;;;;;;4977823;28;20057;-58
2023/08/28 04:59:35;;;;;;;0.90;0.90;;;16.20;56.40;;;;;;4974190;28;20069;-58
2023/08/28 05:02:02;;;;;;;1.83;1.15;;;16.20;56.40;;;;;;4972974;28;21121;-57
2023/08/28 05:04:29;;;;;;;1.15;1.05;;;16.20;56.40;;;;;;4970364;28;20505;-57
2023/08/28 05:06:56;;;;;;;1.38;1.08;;;16.20;56.40;;;;;;4966453;28;20050;-57
2023/08/28 05:09:25;;;;;;;1.98;1.20;;;16.20;56.40;;;;;;4974626;28;20066;-60
2023/08/28 05:11:52;;;;;;;2.00;1.00;;;16.10;56.30;;;;;;4968905;28;20051;-58
2023/08/28 05:14:19;;;;;;;2.05;1.08;;;16.10;56.40;;;;;;4974385;28;20051;-58
2023/08/28 05:16:47;;;;;;;1.08;0.90;;;16.10;56.40;;;;;;4973583;28;20740;-56
2023/08/28 05:19:14;;;;;;;1.58;1.40;;;16.10;56.40;;;;;;4975088;28;20050;-57
2023/08/28 05:21:41;;;;;;;1.92;1.65;;;16.10;56.40;;;;;;4964633;28;20058;-57
2023/08/28 05:24:08;;;;;;;1.20;0.90;;;16.10;56.40;;;;;;4978350;28;20514;-57
2023/08/28 05:26:37;;;;;;;1.45;1.30;;;16.10;56.30;;;;;;4971525;28;20486;-57
2023/08/28 05:29:05;;;;;;;1.85;1.10;;;16.00;56.30;;;;;;4975316;28;20058;-59
2023/08/28 05:31:32;;;;;;;5.57;0.95;;;16.00;56.30;;;;;;4971907;28;20055;-55
2023/08/28 05:33:59;;;;;;;2.15;1.08;;;16.00;56.30;;;;;;4974308;28;20054;-57
2023/08/28 05:36:26;;;;;;;2.90;1.05;;;16.00;56.40;;;;;;4971953;28;20050;-59
2023/08/28 05:38:54;;;;;;;1.92;1.38;;;15.90;56.40;;;;;;4971757;28;20422;-60
2023/08/28 05:41:27;;;;;;;4.88;1.30;;;16.00;56.50;;;;;;4962382;28;20054;-60
2023/08/28 05:43:59;;;;;;;1.77;1.05;;;16.00;56.50;;;;;;4967246;28;20054;-56
2023/08/28 05:46:29;;;;;;;1.83;1.10;;;15.90;56.40;;;;;;4967524;28;20062;-57
2023/08/28 05:49:02;;;;;;;1.75;1.13;;;15.90;56.50;;;;;;4971271;28;20141;-57
2023/08/28 05:51:35;;;;;;;3.17;1.13;;;15.90;56.60;;;;;;4966547;28;20054;-57
2023/08/28 05:54:08;;;;;;;3.28;1.10;;;15.90;56.70;;;;;;4969470;28;20689;-58
2023/08/28 05:56:48;;;;;;;3.05;1.05;;;15.90;56.90;;;;;;4966650;28;20062;-57
2023/08/28 05:59:23;;;;;;;2.53;1.50;;;15.90;56.90;;;;;;4966473;28;20419;-57
2023/08/28 06:01:50;;;;;;;1.85;1.08;;;15.90;57.00;;;;;;4970548;28;20430;-57
2023/08/28 06:04:18;;;;;;;2.70;1.48;;;15.90;57.00;;;;;;4972449;28;20063;-57
2023/08/28 06:06:45;;;;;;;5.43;1.42;;;15.90;57.00;;;;;;4966850;28;20069;-57
2023/08/28 06:09:13;;;;;;;2.30;1.90;;;15.90;57.00;;;;;;4973838;28;20065;-56
2023/08/28 06:11:46;;;;;;;6.68;1.85;;;15.90;57.00;;;;;;4971226;28;20388;-59
2023/08/28 06:14:16;;;;;;;4.88;1.50;;;15.90;57.00;;;;;;4970788;28;20058;-57
2023/08/28 06:16:47;;;;;;;4.03;1.55;;;16.00;57.10;;;;;;4972075;28;20051;-60
2023/08/28 06:19:21;;;;;;;2.33;1.20;;;16.00;57.30;;;;;;4975081;28;20059;-57
2023/08/28 06:21:54;;;;;;;3.53;1.37;;;16.00;57.40;;;;;;4971768;28;20054;-56
2023/08/28 06:24:26;;;;;;;1.80;1.20;;;16.00;57.50;;;;;;4977610;28;20054;-57
2023/08/28 06:26:58;;;;;;;10.90;1.75;;;16.00;57.50;;;;;;4974835;28;20069;-58
2023/08/28 06:29:27;;;;;;;7.55;1.95;;;16.00;57.60;;;;;;4978484;28;20058;-57
2023/08/28 06:31:58;;;;;;;1.98;1.15;;;16.10;57.70;;;;;;4973138;28;20050;-58
2023/08/28 06:34:26;;;;;;;2.65;1.50;;;16.10;57.80;;;;;;4971540;28;20497;-57
2023/08/28 06:36:58;;;;;;;2.15;1.50;;;16.10;57.80;;;;;;4974397;28;20057;-60
2023/08/28 06:39:28;;;;;;;2.42;1.45;;;16.20;57.80;;;;;;4978711;28;20051;-60
2023/08/28 06:41:57;;;;;;;3.75;1.55;;;16.20;57.80;;;;;;4979729;28;20054;-57
2023/08/28 06:44:25;;;;;;;1.88;1.10;;;16.20;57.80;;;;;;4979306;28;20050;-60
2023/08/28 06:46:58;;;;;;;1.58;1.30;;;16.30;57.90;;;;;;4978265;28;20422;-57
2023/08/28 06:49:30;;;;;;;1.77;1.33;;;16.30;57.90;;;;;;4973499;28;20506;-57
2023/08/28 06:52:04;;;;;;;1.90;1.00;;;16.40;57.90;;;;;;4974760;28;20437;-59
2023/08/28 06:54:34;;;;;;;1.13;0.98;;;16.40;57.90;;;;;;4977257;28;20061;-58
2023/08/28 06:57:01;;;;;;;0.68;0.68;;;16.50;58.00;;;;;;4974700;28;20066;-59
2023/08/28 06:59:28;;;;;;;1.00;0.85;;;16.50;58.10;;;;;;4978697;28;20057;-57
2023/08/28 07:01:57;;;;;;;1.92;1.50;;;16.60;58.10;;;;;;4979905;28;20059;-58
2023/08/28 07:04:24;;;;;;;1.30;1.05;;;16.60;58.20;;;;;;4977640;28;20062;-57
2023/08/28 07:06:52;;;;;;;1.58;1.02;;;16.70;58.20;;;;;;4975622;28;20080;-57
2023/08/28 07:09:19;;;;;;;1.50;1.17;;;16.70;58.20;;;;;;4974029;28;20198;-57
2023/08/28 07:11:46;;;;;;;2.75;1.20;;;16.80;58.30;;;;;;4980823;28;20062;-57
2023/08/28 07:14:14;;;;;;;1.20;1.10;;;16.80;58.30;;;;;;4983384;28;20505;-58
2023/08/28 07:16:41;;;;;;;0.80;0.65;;;16.90;58.40;;;;;;4980959;28;20053;-60
2023/08/28 07:19:10;;;;;;;1.92;0.98;;;16.90;58.50;;;;;;4981248;28;20494;-60
2023/08/28 07:21:37;;;;;;;1.10;0.80;;;17.00;58.60;;;;;;4980948;28;20502;-56
2023/08/28 07:24:05;;;;;;;6.88;1.20;;;17.00;58.50;;;;;;4981377;28;21049;-59
2023/08/28 07:26:32;;;;;;;2.45;1.10;;;17.10;58.60;;;;;;4980357;28;20517;-57
2023/08/28 07:28:59;;;;;;;1.00;0.90;;;17.10;58.60;;;;;;4977394;28;20065;-58
2023/08/28 07:31:26;;;;;;;0.95;0.85;;;17.20;58.60;;;;;;4974077;28;20518;-59
2023/08/28 07:33:54;;;;;;;1.02;0.93;;;17.30;58.60;;;;;;4977631;28;20050;-57
2023/08/28 07:36:24;;;;;;;2.15;1.08;;;17.30;58.50;;;;;;4976755;28;20061;-58
2023/08/28 07:38:51;;;;;;;1.20;1.10;;;17.40;58.60;;;;;;4977085;28;20050;-58
2023/08/28 07:41:20;;;;;;;2.83;0.98;;;17.40;58.50;;;;;;4975472;28;20050;-58
2023/08/28 07:43:47;;;;;;;2.67;1.25;;;17.40;58.60;;;;;;4979915;28;20050;-57
2023/08/28 07:46:15;;;;;;;2.63;1.30;;;17.50;58.70;;;;;;4978949;28;20054;-58
2023/08/28 07:48:42;;;;;;;2.28;1.58;;;17.50;58.70;;;;;;4978542;28;20426;-57
2023/08/28 07:51:10;;;;;;;2.20;1.65;;;17.60;59.00;;;;;;4977033;28;20054;-59
2023/08/28 07:53:39;;;;;;;5.25;2.30;;;17.60;59.10;;;;;;4979003;28;20054;-59
2023/08/28 07:56:07;;;;;;;5.13;1.80;;;17.70;59.10;;;;;;4979743;28;20058;-59
2023/08/28 07:58:35;;;;;;;3.70;2.45;;;17.70;59.10;;;;;;4975938;28;20442;-59
2023/08/28 08:01:02;;;;;;;6.97;2.72;;;17.70;59.00;;;;;;4975458;28;20054;-59
2023/08/28 08:03:29;;;;;;;4.70;2.13;;;17.70;58.90;;;;;;4980950;28;20054;-57
2023/08/28 08:05:57;;;;;;;2.85;1.83;;;17.70;58.80;;;;;;4978161;28;20490;-58
2023/08/28 08:08:24;;;;;;;8.10;2.47;;;17.70;58.80;;;;;;4977439;28;20061;-64
2023/08/28 08:10:53;;;;;;;2.80;2.42;;;17.80;58.80;;;;;;4978736;28;20054;-64
2023/08/28 08:13:20;;;;;;;8.27;3.00;;;17.80;58.80;;;;;;4980484;28;20387;-63
2023/08/28 08:15:48;;;;;;;5.35;2.83;;;17.80;58.70;;;;;;4977534;28;20065;-62
2023/08/28 08:18:15;;;;;;;5.10;3.30;;;17.80;58.40;;;;;;4973469;28;20731;-64
2023/08/28 08:20:42;;;;;;;4.43;3.20;;;17.80;58.70;;;;;;4971732;28;20525;-64
2023/08/28 08:23:09;;;;;;;5.97;3.67;;;17.80;58.80;;;;;;4978092;28;20054;-64
2023/08/28 08:25:37;;;;;;;8.32;4.00;;;17.90;58.90;;;;;;4973501;28;20057;-64
2023/08/28 08:28:06;;;;;;;6.28;4.35;;;17.90;58.80;;;;;;4975459;28;20495;-64
2023/08/28 08:30:33;;;;;;;8.18;4.22;;;17.90;58.90;;;;;;4974007;28;20058;-65
2023/08/28 08:33:00;;;;;;;10.80;5.45;;;17.90;58.60;;;;;;4974084;28;20062;-64
2023/08/28 08:35:28;;;;;;;6.82;4.40;;;17.90;58.70;;;;;;4969129;28;20066;-65
2023/08/28 08:37:55;;;;;;;8.43;4.85;;;17.90;58.80;;;;;;4970585;28;20568;-64
2023/08/28 08:40:25;;;;;;;6.75;4.82;;;18.00;58.90;;;;;;4973815;28;20058;-64
2023/08/28 08:42:53;;;;;;;7.93;4.35;;;18.00;59.00;;;;;;4975074;28;20046;-66
2023/08/28 08:45:26;;;;;;;8.02;3.72;;;18.00;59.00;;;;;;4973778;28;20070;-67
2023/08/28 08:47:57;;;;;;;9.25;5.05;;;18.00;59.30;;;;;;4972542;28;20063;-64
2023/08/28 08:50:26;;;;;;;7.22;4.30;;;18.00;59.20;;;;;;4967115;28;20498;-66
2023/08/28 08:52:56;;;;;;;4.78;2.97;;;18.10;59.20;;;;;;4977259;28;20514;-66
2023/08/28 08:55:31;;;;;;;6.32;3.65;;;18.10;59.20;;;;;;4971016;28;20062;-66
2023/08/28 08:58:00;;;;;;;5.97;3.58;;;18.10;59.30;;;;;;4974391;28;20054;-66
2023/08/28 09:00:29;;;;;;;5.45;3.35;;;18.20;59.30;;;;;;4967791;28;20054;-64
2023/08/28 09:02:58;;;;;;;5.65;3.35;;;18.30;59.20;;;;;;4971284;28;20498;-67
2023/08/28 09:05:25;;;;;;;7.38;3.85;;;18.30;59.00;;;;;;4967204;28;20059;-67
2023/08/28 09:07:54;;;;;;;7.63;3.70;;;18.30;58.80;;;;;;4977852;28;20901;-66
2023/08/28 09:10:21;;;;;;;4.68;3.60;;;18.30;59.10;;;;;;4974617;28;20054;-65
2023/08/28 09:12:49;;;;;;;5.82;3.95;;;18.30;59.10;;;;;;4980193;28;20061;-65
2023/08/28 09:15:17;;;;;;;9.00;4.50;;;18.40;59.20;;;;;;4976378;28;20061;-65
2023/08/28 09:17:45;;;;;;;7.90;4.28;;;18.40;59.20;;;;;;4975838;28;20513;-66
2023/08/28 09:20:17;;;;;;;6.90;4.82;;;18.40;58.90;;;;;;4972285;28;20058;-66
2023/08/28 09:22:47;;;;;;;8.43;5.10;;;18.40;59.00;;;;;;4975027;28;20053;-65
2023/08/28 09:25:16;;;;;;;5.60;3.72;;;18.50;58.90;;;;;;4975695;28;20051;-66
2023/08/28 09:27:45;;;;;;;8.80;4.57;;;18.50;59.00;;;;;;4967868;28;20054;-65
2023/08/28 09:30:27;;;;;;;10.52;4.00;;;18.50;58.90;;;;;;4974767;28;20055;-66
2023/08/28 09:32:58;;;;;;;12.43;5.38;;;18.50;58.80;;;;;;4974166;28;20062;-67
2023/08/28 09:35:27;;;;;;;9.32;4.72;;;18.60;58.90;;;;;;4974218;28;20050;-65
2023/08/28 09:37:57;;;;;;;7.63;4.35;;;18.60;59.00;;;;;;4976658;28;20054;-67
2023/08/28 09:40:29;;;;;;;13.75;5.43;;;18.70;59.10;;;;;;4971888;28;20050;-66
2023/08/28 09:42:56;;;;;;;9.38;5.82;;;18.70;59.00;;;;;;4974083;28;20065;-65
2023/08/28 09:45:24;;;;;;;9.43;5.68;;;18.70;58.50;;;;;;4974318;28;20038;-66
2023/08/28 09:47:55;;;;;;;13.10;6.00;;;18.70;58.80;;;;;;4976181;28;20050;-66
2023/08/28 09:50:26;;;;;;;7.18;5.05;;;18.80;58.90;;;;;;4968347;28;20058;-67
2023/08/28 09:52:53;;;;;;;13.23;5.43;;;18.80;58.90;;;;;;4976812;28;20521;-66
2023/08/28 09:55:21;;;;;;;11.73;6.50;;;18.90;58.90;;;;;;4977572;28;20057;-72
2023/08/28 09:57:49;;;;;;;9.23;6.80;;;18.90;58.90;;;;;;4975456;28;20054;-66
2023/08/28 10:00:17;;;;;;;12.43;5.85;;;19.00;58.30;;;;;;4969287;28;20054;-67
2023/08/28 10:02:44;;;;;;;12.55;6.82;;;19.10;58.10;;;;;;4977855;28;20521;-67
2023/08/28 10:05:16;;;;;;;7.20;4.72;;;19.10;57.90;;;;;;4976378;28;20069;-66
2023/08/28 10:07:47;;;;;;;7.03;4.55;;;19.10;57.90;;;;;;4977627;28;20398;-65
2023/08/28 10:10:17;;;;;;;12.18;7.10;;;19.20;58.00;;;;;;4973732;28;20058;-66
2023/08/28 10:12:45;;;;;;;19.33;6.93;;;19.30;57.90;;;;;;4977919;28;20051;-65
2023/08/28 10:15:13;;;;;;;10.65;5.68;;;19.30;57.50;;;;;;4976103;28;20050;-65
2023/08/28 10:17:42;;;;;;;18.42;6.55;;;19.40;57.60;;;;;;4976474;28;20391;-65
2023/08/28 10:20:12;;;;;;;12.93;6.45;;;19.40;57.50;;;;;;4973335;28;20062;-65
2023/08/28 10:22:42;;;;;;;12.68;6.78;;;19.50;57.10;;;;;;4978174;28;20054;-66
2023/08/28 10:25:12;;;;;;;9.95;5.72;;;19.50;57.10;;;;;;4980584;28;20050;-67
2023/08/28 10:27:40;;;;;;;9.95;5.78;;;19.50;57.00;;;;;;4978698;28;20059;-67
2023/08/28 10:30:10;;;;;;;9.10;4.85;;;19.50;56.80;;;;;;4974106;28;20053;-67
2023/08/28 10:32:39;;;;;;;6.15;3.97;;;19.50;56.60;;;;;;4975244;28;20062;-65
2023/08/28 10:35:09;;;;;;;9.10;4.88;;;19.60;56.70;;;;;;4973322;28;20226;-65
2023/08/28 10:37:40;;;;;;;7.32;4.50;;;19.60;56.90;;;;;;4979634;28;20058;-68
2023/08/28 10:40:12;;;;;;;6.45;3.85;;;19.70;56.90;;;;;;4978207;28;20598;-64
2023/08/28 10:42:41;;;;;;;8.65;3.38;;;19.70;56.60;;;;;;4975553;28;20050;-65
2023/08/28 10:45:09;;;;;;;7.40;4.25;;;19.80;56.80;;;;;;4978847;28;20396;-66
2023/08/28 10:47:37;;;;;;;9.30;3.88;;;19.80;56.30;;;;;;4979591;28;20050;-65
2023/08/28 10:50:06;;;;;;;8.75;4.25;;;19.90;56.20;;;;;;4974550;28;20054;-66
2023/08/28 10:52:34;;;;;;;6.45;3.80;;;19.90;56.10;;;;;;4977544;28;20058;-64
2023/08/28 10:55:06;;;;;;;6.50;3.90;;;19.90;55.90;;;;;;4974245;28;20516;-66
2023/08/28 10:57:39;;;;;;;9.38;4.90;;;20.00;55.90;;;;;;4980522;28;20072;-62
2023/08/28 11:00:17;;;;;;;6.50;4.57;;;20.00;55.70;;;;;;4957071;28;20061;-66
2023/08/28 11:03:06;;;;;;;7.75;4.15;;;20.10;55.50;;;;;;4977282;28;20058;-66
2023/08/28 11:05:33;;;;;;;5.95;3.47;;;20.10;55.00;;;;;;4973477;28;20054;-66
2023/08/28 11:08:04;;;;;;;7.10;2.60;;;20.10;54.70;;;;;;4980762;28;20525;-66
2023/08/28 11:10:31;;;;;;;4.57;1.92;;;20.10;54.70;;;;;;4973961;28;20058;-61
2023/08/28 11:13:03;;;;;;;5.80;2.47;;;20.10;54.40;;;;;;4980925;28;20054;-67
2023/08/28 11:15:32;;;;;;;5.55;2.25;;;20.10;54.50;;;;;;4979871;28;20568;-69
2023/08/28 11:18:27;;;;;;;4.95;2.03;;;20.10;54.50;;;;;;4978261;28;20063;-68
2023/08/28 11:20:55;;;;;;;3.60;2.75;;;20.10;54.80;;;;;;4967330;28;20406;-67
2023/08/28 11:23:24;;;;;;;4.38;2.25;;;20.10;55.10;;;;;;4978489;28;20061;-65
2023/08/28 11:25:52;;;;;;;2.42;2.08;;;20.20;55.00;;;;;;4975169;28;20050;-67
2023/08/28 11:28:29;;;;;;;8.00;2.55;;;20.20;54.80;;;;;;4979494;28;20065;-68
2023/08/28 11:31:01;;;;;;;4.57;2.22;;;20.30;54.80;;;;;;4974820;28;20047;-65
2023/08/28 11:33:38;;;;;;;4.43;2.00;;;20.30;54.00;;;;;;4979974;28;20058;-68
2023/08/28 11:36:07;;;;;;;5.57;2.45;;;20.30;54.30;;;;;;4976255;28;20490;-67
2023/08/28 11:38:34;;;;;;;4.15;1.55;;;20.30;54.50;;;;;;4970069;28;20491;-61
2023/08/28 11:41:04;;;;;;;5.95;2.15;;;20.40;53.90;;;;;;4973745;28;20058;-60
2023/08/28 11:43:36;;;;;;;4.53;1.77;;;20.40;53.70;;;;;;4978874;28;20074;-61
2023/08/28 11:46:04;;;;;;;3.78;1.90;;;20.40;53.40;;;;;;4978800;28;20042;-70
2023/08/28 11:48:35;;;;;;;5.97;2.35;;;20.50;54.30;;;;;;4970726;28;20542;-59
2023/08/28 11:51:04;;;;;;;5.45;2.67;;;20.50;53.00;;;;;;4972268;28;20061;-61
2023/08/28 11:53:33;;;;;;;4.78;2.35;;;20.60;53.10;;;;;;4976633;28;20074;-61
2023/08/28 11:56:03;;;;;;;5.13;2.00;;;20.50;53.00;;;;;;4977611;28;20057;-61
2023/08/28 11:58:31;;;;;;;4.03;2.38;;;20.50;53.30;;;;;;4975148;28;20054;-62
2023/08/28 12:01:05;;;;;;;3.53;2.20;;;20.50;53.00;;;;;;4978765;28;20087;-62
2023/08/28 12:03:33;;;;;;;5.30;2.43;;;20.50;52.80;;;;;;4975092;28;20054;-62
2023/08/28 12:06:03;;;;;;;5.05;2.50;;;20.60;52.80;;;;;;4972267;28;20065;-60
2023/08/28 12:08:30;;;;;;;3.03;2.05;;;20.60;52.80;;;;;;4968316;28;20062;-61
2023/08/28 12:10:59;;;;;;;3.60;2.15;;;20.50;53.20;;;;;;4974002;28;20054;-60
2023/08/28 12:13:26;;;;;;;4.35;2.80;;;20.60;53.40;;;;;;4975418;28;20054;-62
2023/08/28 12:16:08;;;;;;;8.05;4.65;;;20.70;53.10;;;;;;4979333;28;20069;-66
2023/08/28 12:18:49;;;;;;;9.60;4.63;;;20.70;52.40;;;;;;4975621;28;20786;-61
2023/08/28 12:21:17;;;;;;;5.10;3.70;;;20.70;52.50;;;;;;4973856;28;20062;-64
2023/08/28 12:23:49;;;;;;;6.35;4.63;;;20.70;52.50;;;;;;4976462;28;20046;-66
2023/08/28 12:26:21;;;;;;;10.10;6.10;;;20.70;52.20;;;;;;4977870;28;20519;-61
2023/08/28 12:28:49;;;;;;;9.93;5.25;;;20.70;52.10;;;;;;4974740;28;20398;-59
2023/08/28 12:31:26;;;;;;;9.68;5.03;;;20.70;52.60;;;;;;4976440;28;20494;-62
2023/08/28 12:33:53;;;;;;;6.18;4.13;;;20.80;52.60;;;;;;4978375;28;20094;-62
2023/08/28 12:36:21;;;;;;;6.40;5.22;;;20.80;52.80;;;;;;4957270;28;20490;-63
2023/08/28 12:38:49;;;;;;;6.68;3.70;;;20.90;52.60;;;;;;4978688;28;20506;-60
2023/08/28 12:41:17;;;;;;;8.48;5.20;;;20.90;52.50;;;;;;4978769;28;20055;-61
2023/08/28 12:43:45;;;;;;;9.20;5.38;;;20.90;52.30;;;;;;4978670;28;21278;-65
2023/08/28 12:46:13;;;;;;;6.53;4.78;;;20.90;51.90;;;;;;4979312;28;20478;-60
2023/08/28 12:48:43;;;;;;;4.38;3.15;;;20.90;51.50;;;;;;4972210;28;20054;-65
2023/08/28 12:51:10;;;;;;;8.02;4.00;;;20.90;51.70;;;;;;4973790;28;20456;-67
2023/08/28 12:53:38;;;;;;;4.45;3.22;;;20.90;51.80;;;;;;4973896;28;20387;-67
2023/08/28 12:56:05;;;;;;;4.65;2.58;;;21.00;51.50;;;;;;4972318;28;20482;-66